M I D A S
Marine Information and Data Acquisition System
Tripno 676 of the Zeeleeuw from 2004-03-26 07:15:52 to 2004-03-26 16:29:29
Back to CruiseResearch ActivitiesStationsMapUnderway DataData graphs

EquipmentUnitsComment
TimeDGPSUTC
LatitudeDGPSDM.mWGS84
LongitudeDGPSDM.mWGS84
HeadingGyrodeg 
SOGDGPSknotsSpeed over ground
COGDGPSdegCourse over ground
DepthEcho soundermeters200 kHz
Missing or incorrect values are displayed as -999
Navigation data collected by the RV Zeeleeuw from 2004-03-26 07:15:52 to 2004-03-26 16:29:29
Time Latitude Longitude Heading SOG COG Depth
2004-03-26 07:16:57 51°13.597 2°56.08 115.6 2.5 291 -999
2004-03-26 07:17:57 51°13.628 2°55.982 120.3 5.1 296 -999
2004-03-26 07:18:57 51°13.667 2°55.854 116.8 5.4 294 -999
2004-03-26 07:19:57 51°13.689 2°55.762 95.4 0.5 316 -999
2004-03-26 07:20:57 51°13.686 2°55.747 55.3 1.3 249 -999
2004-03-26 07:21:57 51°13.722 2°55.734 338 3.9 331 -999
2004-03-26 07:23:01 51°13.799 2°55.658 337.1 6.6 333 9.7
2004-03-26 07:24:01 51°13.91 2°55.576 340.5 7.7 334 9.5
2004-03-26 07:25:01 51°14.03 2°55.492 340.9 7.9 336 10.4
2004-03-26 07:26:01 51°14.161 2°55.39 337 9.9 331 10.7
2004-03-26 07:27:01 51°14.29 2°55.205 314.7 10.8 309 10.5
2004-03-26 07:28:01 51°14.388 2°54.941 303.3 12.3 298 10
2004-03-26 07:29:01 51°14.555 2°54.747 348.7 13.1 340 9.8
2004-03-26 07:30:01 51°14.766 2°54.644 354.7 13.4 345 9
2004-03-26 07:31:01 51°14.982 2°54.565 359.7 13.2 350 8.5
2004-03-26 07:32:01 51°15.194 2°54.489 354.4 13.1 345 8.2
2004-03-26 07:33:01 51°15.412 2°54.425 0.2 13.4 350 8.6
2004-03-26 07:34:01 51°15.633 2°54.363 2.6 13.5 354 9.4
2004-03-26 07:35:02 51°15.861 2°54.321 3.6 13.5 355 10.2
2004-03-26 07:36:01 51°16.078 2°54.288 4.7 12.4 354 10.8
2004-03-26 07:37:01 51°16.23 2°54.27 15.5 5.9 5 11.4
2004-03-26 07:38:01 51°16.266 2°54.284 59.2 0.8 35 11.4
2004-03-26 07:39:01 51°16.265 2°54.293 82.5 0.7 157 11.4
2004-03-26 07:40:01 51°16.255 2°54.299 92.7 1 148 11.3
2004-03-26 07:41:01 51°16.248 2°54.357 88.7 2.7 93 11.2
2004-03-26 07:42:01 51°16.243 2°54.418 87.7 1.8 101 11.2
2004-03-26 07:43:01 51°16.239 2°54.472 86.5 2.6 92 11.1
2004-03-26 07:44:01 51°16.235 2°54.545 89.3 2.8 98 11
2004-03-26 07:45:01 51°16.227 2°54.616 90.8 2.6 99 10.9
2004-03-26 07:46:01 51°16.221 2°54.682 88.2 2.4 95 10.8
2004-03-26 07:47:01 51°16.218 2°54.744 83.8 2.3 91 10.7
2004-03-26 07:48:01 51°16.216 2°54.808 85 2.6 94 10.7
2004-03-26 07:49:01 51°16.214 2°54.876 87 2.6 99 10.6
2004-03-26 07:50:01 51°16.208 2°54.944 90 2.6 94 10.4
2004-03-26 07:51:01 51°16.201 2°55.015 89.6 2.7 100 10.3
2004-03-26 07:52:01 51°16.196 2°55.084 87 2.5 92 10.2
2004-03-26 07:53:01 51°16.193 2°55.151 82.8 2.5 92 10.1
2004-03-26 07:54:01 51°16.196 2°55.214 77.6 2.5 83 10.1
2004-03-26 07:55:01 51°16.204 2°55.277 73.6 2.4 80 9.9
2004-03-26 07:56:01 51°16.212 2°55.343 79.1 2.6 82 9.9
2004-03-26 07:57:01 51°16.212 2°55.412 87 2.6 93 9.9
2004-03-26 07:58:01 51°16.201 2°55.482 95.2 2.8 111 9.7
2004-03-26 07:59:01 51°16.185 2°55.551 96.2 2.6 105 9.7
2004-03-26 08:00:02 51°16.174 2°55.619 87.8 2.5 96 9.5
2004-03-26 08:01:01 51°16.174 2°55.684 82.4 2.5 88 9.3
2004-03-26 08:02:01 51°16.175 2°55.751 81.1 2.5 88 9.2
2004-03-26 08:03:01 51°16.178 2°55.818 79.7 2.6 85 9.4
2004-03-26 08:04:01 51°16.182 2°55.885 80.4 2.5 84 9.3
2004-03-26 08:05:01 51°16.184 2°55.953 80.6 2.6 87 9.3
2004-03-26 08:06:01 51°16.188 2°56.021 81.1 2.6 86 9.1
2004-03-26 08:07:01 51°16.19 2°56.087 78.5 2.5 86 9.1
2004-03-26 08:08:01 51°16.199 2°56.151 73 2.5 78 9.1
2004-03-26 08:09:01 51°16.206 2°56.218 79.6 2.6 88 9.1
2004-03-26 08:10:01 51°16.211 2°56.285 79.6 2.6 82 9
2004-03-26 08:11:01 51°16.214 2°56.354 82 2.6 87 8.9
2004-03-26 08:12:01 51°16.211 2°56.423 91.1 2.6 103 8.8
2004-03-26 08:13:01 51°16.186 2°56.468 121.8 2.1 160 8.8
2004-03-26 08:14:01 51°16.155 2°56.474 139.8 1.9 182 8.6
2004-03-26 08:15:01 51°16.119 2°56.466 158.9 2.8 189 8.6
2004-03-26 08:16:01 51°16.067 2°56.425 212.2 3.9 217 8.3
2004-03-26 08:17:01 51°16.024 2°56.343 234 4 237 8.3
2004-03-26 08:18:01 51°15.992 2°56.256 245.9 3.8 238 8.4
2004-03-26 08:19:01 51°15.969 2°56.163 261.8 3.7 257 8.4
2004-03-26 08:20:01 51°15.956 2°56.067 275 3.7 261 8.4
2004-03-26 08:21:01 51°15.949 2°55.971 281.7 3.6 264 8.4
2004-03-26 08:22:01 51°15.946 2°55.878 287.4 3.6 266 8.5
2004-03-26 08:23:01 51°15.947 2°55.785 294.6 3.5 273 8.7
2004-03-26 08:24:01 51°15.951 2°55.695 299.4 3.3 277 8.8
2004-03-26 08:25:01 51°15.959 2°55.608 304.1 3.3 279 8.7
2004-03-26 08:26:01 51°15.969 2°55.523 306.2 3.2 281 8.8
2004-03-26 08:27:01 51°15.979 2°55.438 310.4 3.2 282 8.9
2004-03-26 08:28:02 51°15.993 2°55.354 313.5 3.3 286 9
2004-03-26 08:29:01 51°16.005 2°55.273 312 3.2 283 9.1
2004-03-26 08:30:01 51°16.016 2°55.188 310.2 3.2 281 9.3
2004-03-26 08:31:01 51°16.026 2°55.104 309.9 3.3 282 9.3
2004-03-26 08:32:01 51°16.036 2°55.019 309.6 3.3 280 9.5
2004-03-26 08:33:01 51°16.047 2°54.934 311 3.3 283 9.6
2004-03-26 08:34:01 51°16.06 2°54.849 310.4 3.3 281 9.8
2004-03-26 08:35:01 51°16.067 2°54.762 305.5 3.4 277 9.9
2004-03-26 08:36:01 51°16.074 2°54.674 305.6 3.4 276 10
2004-03-26 08:37:01 51°16.081 2°54.583 306.9 3.4 277 10.2
2004-03-26 08:38:01 51°16.089 2°54.493 309.3 3.4 280 10.3
2004-03-26 08:39:01 51°16.1 2°54.406 311.6 3.4 281 10.3
2004-03-26 08:40:01 51°16.111 2°54.321 313.4 3.1 284 10.5
2004-03-26 08:41:02 51°16.124 2°54.238 315.4 3.2 284 10.5
2004-03-26 08:42:01 51°16.136 2°54.158 314.5 3.2 284 10.6
2004-03-26 08:43:02 51°16.151 2°54.08 318.4 3 288 10.6
2004-03-26 08:44:01 51°16.167 2°54.005 318.4 3 288 10.7
2004-03-26 08:45:01 51°16.182 2°53.927 317.9 3.1 287 10.8
2004-03-26 08:46:01 51°16.197 2°53.848 317 3.1 285 10.8
2004-03-26 08:47:01 51°16.209 2°53.769 317 2.8 280 10.9
2004-03-26 08:48:01 51°16.215 2°53.702 317.5 2.4 273 11
2004-03-26 08:49:01 51°16.215 2°53.641 317.7 2.3 268 11
2004-03-26 08:50:01 51°16.266 2°53.495 318.9 10 307 11
2004-03-26 08:51:01 51°16.423 2°53.253 332.2 14 322 10.9
2004-03-26 08:52:01 51°16.617 2°53.051 338 13.9 327 10.4
2004-03-26 08:53:01 51°16.812 2°52.859 338.5 13.2 329 8.1
2004-03-26 08:54:01 51°16.993 2°52.662 333.1 13.6 325 8.6
2004-03-26 08:55:01 51°17.181 2°52.467 333.1 13.6 323 8.7
2004-03-26 08:56:01 51°17.369 2°52.261 336.8 13.7 327 9.2
2004-03-26 08:57:02 51°17.56 2°52.049 335.4 13.7 326 9.2
2004-03-26 08:58:01 51°17.743 2°51.842 334.7 13.7 325 8.8
2004-03-26 08:59:01 51°17.929 2°51.632 335.4 13.8 325 9.1
2004-03-26 09:00:01 51°18.119 2°51.415 334.2 14.2 324 10.3
2004-03-26 09:01:01 51°18.31 2°51.195 334 14.1 324 11.6
2004-03-26 09:02:01 51°18.457 2°51.047 353.7 6.6 337 12.6
2004-03-26 09:03:01 51°18.514 2°51.013 29.2 1.3 321 12.9
2004-03-26 09:04:01 51°18.52 2°50.998 58.5 0.4 254 13
2004-03-26 09:05:01 51°18.531 2°51.026 64.6 2.4 60 12.8
2004-03-26 09:06:01 51°18.553 2°51.077 62.6 2.4 56 12.7
2004-03-26 09:07:01 51°18.571 2°51.128 67.3 2.1 65 13
2004-03-26 09:08:02 51°18.587 2°51.181 66.4 2.2 60 12.9
2004-03-26 09:09:01 51°18.609 2°51.23 58.7 2.3 48 12.9
2004-03-26 09:10:01 51°18.638 2°51.273 53.1 2.4 40 13
2004-03-26 09:11:01 51°18.666 2°51.318 61.3 2.3 53 12.9
2004-03-26 09:12:01 51°18.682 2°51.371 70 2.2 70 13
2004-03-26 09:13:01 51°18.699 2°51.419 61.7 2 55 12.9
2004-03-26 09:14:01 51°18.721 2°51.46 59 2.1 46 12.9
2004-03-26 09:15:01 51°18.745 2°51.503 59.6 2.1 50 12.9
2004-03-26 09:16:01 51°18.767 2°51.547 60.9 2.1 57 12.9
2004-03-26 09:17:01 51°18.788 2°51.593 62.9 2.2 55 13
2004-03-26 09:18:01 51°18.807 2°51.641 63.5 2.1 59 13
2004-03-26 09:19:02 51°18.827 2°51.689 62.7 2.1 55 12.8
2004-03-26 09:20:01 51°18.845 2°51.735 64.5 2.1 59 13
2004-03-26 09:21:02 51°18.862 2°51.784 64.9 2.2 62 12.9
2004-03-26 09:22:01 51°18.878 2°51.834 66.4 2.1 65 12.7
2004-03-26 09:23:02 51°18.894 2°51.886 67.4 2.1 65 12.7
2004-03-26 09:24:01 51°18.908 2°51.936 66.7 2.1 68 12.8
2004-03-26 09:25:01 51°18.922 2°51.986 65.3 2 62 12.8
2004-03-26 09:26:01 51°18.94 2°52.033 61.6 2 59 12.8
2004-03-26 09:27:01 51°18.96 2°52.077 58.9 2.1 53 12.7
2004-03-26 09:28:01 51°18.988 2°52.128 56.6 2.1 48 12.8
2004-03-26 09:29:01 51°19.009 2°52.159 54.7 2.1 46 12.7
2004-03-26 09:30:01 51°19.032 2°52.2 58.9 2.1 50 12.6
2004-03-26 09:31:01 51°19.051 2°52.245 62.4 2 57 12.7
2004-03-26 09:32:02 51°19.068 2°52.295 66.2 2.1 69 12.7
2004-03-26 09:33:01 51°19.078 2°52.348 71 2.1 75 12.6
2004-03-26 09:34:01 51°19.089 2°52.4 65.7 2 66 12.6
2004-03-26 09:35:02 51°19.105 2°52.448 61.5 2 62 12.5
2004-03-26 09:36:01 51°19.105 2°52.499 91.4 1.9 123 12.4
2004-03-26 09:37:01 51°19.08 2°52.523 112.3 1.7 163 12.3
2004-03-26 09:38:01 51°19.049 2°52.53 119 2.3 162 12
2004-03-26 09:39:01 51°18.988 2°52.525 184.3 5 203 11.8
2004-03-26 09:40:01 51°18.928 2°52.44 226.9 4.7 232 11.7
2004-03-26 09:41:01 51°18.88 2°52.343 233.7 4.5 233 11.8
2004-03-26 09:42:01 51°18.841 2°52.247 242.2 4.1 239 11.9
2004-03-26 09:43:02 51°18.808 2°52.152 248.5 4 244 11.8
2004-03-26 09:44:01 51°18.78 2°52.06 251.2 3.9 243 11.9
2004-03-26 09:45:01 51°18.751 2°51.969 250.9 3.9 244 12.1
2004-03-26 09:46:01 51°18.722 2°51.877 249.7 3.9 244 12.2
2004-03-26 09:47:01 51°18.691 2°51.785 248.6 3.9 242 12.2
2004-03-26 09:48:01 51°18.66 2°51.694 247 3.9 243 12.2
2004-03-26 09:49:01 51°18.628 2°51.605 245 3.9 240 12.3
2004-03-26 09:50:01 51°18.596 2°51.516 246.1 3.9 241 12.5
2004-03-26 09:51:01 51°18.564 2°51.426 245.9 3.9 240 12.4
2004-03-26 09:52:01 51°18.532 2°51.335 246.6 3.9 239 12.5
2004-03-26 09:53:01 51°18.5 2°51.245 245.3 3.9 242 12.4
2004-03-26 09:54:02 51°18.468 2°51.152 246.2 3.9 241 12.6
2004-03-26 09:55:02 51°18.437 2°51.061 248.7 3.9 244 12.5
2004-03-26 09:56:01 51°18.408 2°50.971 249.9 3.9 241 12.4
2004-03-26 09:57:01 51°18.378 2°50.877 250.2 3.9 242 12.5
2004-03-26 09:58:02 51°18.347 2°50.782 249.6 4 240 12.5
2004-03-26 09:59:02 51°18.316 2°50.689 250.4 4 243 12.5
2004-03-26 10:00:02 51°18.286 2°50.595 249.7 4 244 12.6
2004-03-26 10:01:02 51°18.256 2°50.501 250 4 243 12.9
2004-03-26 10:02:01 51°18.227 2°50.409 250.3 3.9 244 12.8
2004-03-26 10:03:01 51°18.197 2°50.317 247.7 4 243 12.8
2004-03-26 10:04:01 51°18.166 2°50.226 246 3.9 241 13
2004-03-26 10:05:01 51°18.134 2°50.134 246.6 4 244 12.8
2004-03-26 10:06:01 51°18.102 2°50.042 248.3 3.9 242 12.7
2004-03-26 10:07:01 51°18.071 2°49.951 250.1 4 242 12.6
2004-03-26 10:08:01 51°18.041 2°49.857 252.8 4.1 245 12.9
2004-03-26 10:09:01 51°18.014 2°49.764 264.7 3.6 249 12.7
2004-03-26 10:10:01 51°17.994 2°49.68 277.7 3.3 253 12.8
2004-03-26 10:11:01 51°17.997 2°49.564 314 5.6 293 12.3
2004-03-26 10:12:01 51°18.078 2°49.494 17.9 6.3 7 12.3
2004-03-26 10:13:01 51°18.194 2°49.615 45.9 10.6 39 12.1
2004-03-26 10:14:01 51°18.341 2°49.817 51.5 11.9 47 12.5
2004-03-26 10:15:01 51°18.451 2°50.08 65.1 11.9 63 12.9
2004-03-26 10:16:01 51°18.541 2°50.363 66.1 12 63 13.1
2004-03-26 10:17:01 51°18.633 2°50.646 65.6 12.1 62 13.2
2004-03-26 10:18:01 51°18.726 2°50.931 65.8 12.1 62 13.3
2004-03-26 10:19:01 51°18.818 2°51.217 68.3 12.1 67 13.3
2004-03-26 10:20:01 51°18.896 2°51.515 69.6 12.2 67 13.3
2004-03-26 10:21:01 51°18.975 2°51.812 69 12.1 66 13.2
2004-03-26 10:22:02 51°19.055 2°52.112 69.7 12 67 12.9
2004-03-26 10:23:01 51°19.132 2°52.4 69.5 12 67 12.6
2004-03-26 10:24:02 51°19.213 2°52.698 69.4 12.1 66 12.4
2004-03-26 10:25:02 51°19.293 2°52.995 69.9 12.2 67 12.2
2004-03-26 10:26:02 51°19.374 2°53.293 69.5 12.3 67 11.8
2004-03-26 10:27:02 51°19.447 2°53.597 72.8 12.3 71 11.6
2004-03-26 10:28:01 51°19.515 2°53.898 72.7 12.2 70 11.4
2004-03-26 10:29:01 51°19.585 2°54.205 71.8 12.3 69 11.3
2004-03-26 10:30:01 51°19.653 2°54.513 71.7 12.3 70 11.3
2004-03-26 10:31:01 51°19.721 2°54.821 72.5 12.2 70 11.4
2004-03-26 10:32:01 51°19.791 2°55.128 72.5 12.3 70 11.3
2004-03-26 10:33:02 51°19.861 2°55.441 72.8 12.4 71 11.2
2004-03-26 10:34:01 51°19.931 2°55.745 72.6 12.4 70 11.2
2004-03-26 10:35:01 51°20.002 2°56.056 72.3 12.5 71 11.2
2004-03-26 10:36:01 51°20.072 2°56.368 72.4 12.5 70 11
2004-03-26 10:37:02 51°20.143 2°56.687 71.9 12.6 69 11
2004-03-26 10:38:02 51°20.215 2°57.002 72.4 12.6 70 10.7
2004-03-26 10:39:01 51°20.286 2°57.312 72 12.6 72 10.7
2004-03-26 10:40:01 51°20.358 2°57.627 71.8 12.6 70 10.6
2004-03-26 10:41:02 51°20.428 2°57.943 72.5 12.4 70 10.4
2004-03-26 10:42:02 51°20.502 2°58.247 68.9 12.2 66 10.3
2004-03-26 10:43:02 51°20.591 2°58.537 67.4 12.2 64 10.2
2004-03-26 10:44:02 51°20.681 2°58.829 66.4 12.3 64 10.2
2004-03-26 10:45:02 51°20.771 2°59.123 66.7 12.2 64 10.2
2004-03-26 10:46:02 51°20.856 2°59.42 70.6 12.3 68 10.2
2004-03-26 10:47:02 51°20.934 2°59.72 70.4 11.5 68 10
2004-03-26 10:48:02 51°20.975 2°59.901 73.6 4.7 72 10.3
2004-03-26 10:49:02 51°20.987 2°59.975 64.3 1.9 72 10.4
2004-03-26 10:50:01 51°20.986 2°59.988 67.1 0.6 191 10.4
2004-03-26 10:51:01 51°20.974 2°59.991 77.9 1.3 112 10.4
2004-03-26 10:52:02 51°20.975 3°0.056 76.3 2.7 87 10.4
2004-03-26 10:53:03 51°20.973 3°0.128 81.7 2.6 94 10.4
2004-03-26 10:54:01 51°20.973 3°0.194 74.8 2.5 84 10.3
2004-03-26 10:55:01 51°20.978 3°0.259 71 2.4 81 10.4
2004-03-26 10:56:01 51°20.986 3°0.322 69.1 2.4 75 10.3
2004-03-26 10:57:01 51°20.995 3°0.384 68.9 2.5 74 10.3
2004-03-26 10:58:01 51°21.004 3°0.447 70.2 2.4 77 10.3
2004-03-26 10:59:02 51°21.012 3°0.513 71 2.5 75 10.3
2004-03-26 11:00:03 51°21.021 3°0.577 69.6 2.5 76 10.4
2004-03-26 11:01:01 51°21.029 3°0.639 70.8 2.5 79 10.3
2004-03-26 11:02:02 51°21.038 3°0.704 70.5 2.4 76 10.3
2004-03-26 11:03:01 51°21.047 3°0.766 69.7 2.4 76 10.3
2004-03-26 11:04:02 51°21.057 3°0.83 70.4 2.4 76 10.2
2004-03-26 11:05:01 51°21.067 3°0.893 69.7 2.5 77 10.4
2004-03-26 11:06:02 51°21.076 3°0.957 70.6 2.5 78 10.3
2004-03-26 11:07:01 51°21.086 3°1.02 70.3 2.5 73 10.4
2004-03-26 11:08:01 51°21.096 3°1.083 70.6 2.5 73 10.3
2004-03-26 11:09:01 51°21.105 3°1.147 69.2 2.5 75 10.3
2004-03-26 11:10:01 51°21.116 3°1.211 69.9 2.5 72 10.3
2004-03-26 11:11:02 51°21.127 3°1.276 70.1 2.5 73 10.3
2004-03-26 11:12:02 51°21.137 3°1.341 70.6 2.5 77 10.3
2004-03-26 11:13:02 51°21.147 3°1.405 70.8 2.5 74 10.3
2004-03-26 11:14:02 51°21.157 3°1.471 71.5 2.5 77 10.3
2004-03-26 11:15:01 51°21.166 3°1.535 70.5 2.6 78 10.4
2004-03-26 11:16:02 51°21.177 3°1.603 70.9 2.6 70 10.3
2004-03-26 11:17:01 51°21.188 3°1.668 70 2.5 75 10.3
2004-03-26 11:18:03 51°21.199 3°1.736 70.4 2.6 75 10.3
2004-03-26 11:19:02 51°21.21 3°1.802 70.1 2.6 72 10.3
2004-03-26 11:20:02 51°21.221 3°1.87 70.6 2.7 76 10.5
2004-03-26 11:21:02 51°21.232 3°1.937 70.6 2.6 78 10.4
2004-03-26 11:22:01 51°21.241 3°2.004 70.9 2.7 79 10.5
2004-03-26 11:23:01 51°21.243 3°2.068 88.5 1.9 108 10.4
2004-03-26 11:24:02 51°21.226 3°2.103 108.6 1.5 143 10.4
2004-03-26 11:25:01 51°21.201 3°2.118 122.7 1.6 164 10.4
2004-03-26 11:26:02 51°21.158 3°2.128 160.9 3.3 181 10.4
2004-03-26 11:27:01 51°21.097 3°2.105 188.1 4.2 198 10.3
2004-03-26 11:28:01 51°21.035 3°2.061 202.7 4 210 10.2
2004-03-26 11:29:01 51°20.984 3°2.001 221.1 3.7 224 10.3
2004-03-26 11:30:01 51°20.944 3°1.932 233 3.3 229 9.8
2004-03-26 11:31:01 51°20.91 3°1.863 237.6 3.3 233 9.8
2004-03-26 11:32:01 51°20.877 3°1.796 236.8 3.2 232 9.9
2004-03-26 11:33:01 51°20.844 3°1.731 234.5 3.1 229 9.9
2004-03-26 11:34:02 51°20.81 3°1.666 231.7 3.2 230 9.8
2004-03-26 11:35:03 51°20.775 3°1.603 230.1 3.2 225 9.8
2004-03-26 11:36:02 51°20.74 3°1.541 230.6 3.2 225 9.7
2004-03-26 11:37:02 51°20.705 3°1.476 234 3.2 231 9.7
2004-03-26 11:38:03 51°20.671 3°1.408 240.9 3.1 235 9.5
2004-03-26 11:39:02 51°20.643 3°1.34 249.1 3.1 239 9.6
2004-03-26 11:40:01 51°20.619 3°1.271 253.6 3 241 9.6
2004-03-26 11:41:01 51°20.594 3°1.202 253.1 2.9 239 9.5
2004-03-26 11:42:01 51°20.569 3°1.134 250.1 3.1 238 9.6
2004-03-26 11:43:03 51°20.541 3°1.06 248.2 3.2 237 9.5
2004-03-26 11:44:02 51°20.513 3°0.992 246 3.2 240 9.6
2004-03-26 11:45:02 51°20.483 3°0.92 245.8 3.3 235 9.6
2004-03-26 11:46:01 51°20.453 3°0.849 244.6 3.3 235 9.9
2004-03-26 11:47:02 51°20.423 3°0.775 248.6 3.2 241 9.6
2004-03-26 11:48:02 51°20.395 3°0.702 251.7 3.2 241 9.5
2004-03-26 11:49:02 51°20.37 3°0.629 254.4 3.1 243 9.5
2004-03-26 11:50:03 51°20.346 3°0.556 253.7 3 245 9.7
2004-03-26 11:51:02 51°20.323 3°0.489 252.4 2.9 242 9.6
2004-03-26 11:52:02 51°20.299 3°0.423 253.1 2.9 240 9.6
2004-03-26 11:53:01 51°20.277 3°0.357 253.3 2.9 243 9.5
2004-03-26 11:54:01 51°20.253 3°0.289 251.8 2.9 241 9.5
2004-03-26 11:55:01 51°20.227 3°0.221 252.8 3 240 9.4
2004-03-26 11:56:01 51°20.203 3°0.152 252.4 3.1 239 9.4
2004-03-26 11:57:02 51°20.177 3°0.082 252.5 2.8 241 9.6
2004-03-26 11:58:02 51°20.156 3°0.026 256.2 2.4 239 9.4
2004-03-26 11:59:01 51°20.129 2°59.949 254.9 4 247 9.3
2004-03-26 12:00:03 51°20.126 2°59.833 298 4.3 282 9.5
2004-03-26 12:01:01 51°20.159 2°59.741 335.6 4 316 9.5
2004-03-26 12:02:03 51°20.205 2°59.684 352 2.7 325 9.8
2004-03-26 12:03:01 51°20.237 2°59.66 11.8 2.2 348 9.8
2004-03-26 12:04:03 51°20.273 2°59.67 37.9 2.1 24 9.9
2004-03-26 12:05:01 51°20.294 2°59.712 65.2 2.2 73 9.9
2004-03-26 12:06:01 51°20.291 2°59.777 93.6 2.7 108 10
2004-03-26 12:07:02 51°20.26 2°59.847 119 3.4 134 9.9
2004-03-26 12:08:03 51°20.22 2°59.889 133.5 2.6 156 9.6
2004-03-26 12:09:02 51°20.187 2°59.907 136.1 1.9 166 9.6
2004-03-26 12:10:01 51°20.158 2°59.912 141.6 1.7 180 9.5
2004-03-26 12:11:01 51°20.115 2°59.921 156 3.3 175 9.5
2004-03-26 12:12:01 51°20.06 2°59.92 173.8 3.4 187 9.4
2004-03-26 12:13:01 51°20.005 2°59.905 184.5 3.1 193 9.3
2004-03-26 12:14:01 51°19.961 2°59.886 188.6 2.5 197 9.2
2004-03-26 12:15:03 51°19.917 2°59.862 193.9 3.7 198 9
2004-03-26 12:16:01 51°19.847 2°59.796 223.1 5.9 220 8.9
2004-03-26 12:17:02 51°19.79 2°59.66 256 5.6 247 8.9
2004-03-26 12:18:01 51°19.773 2°59.536 280.8 4.4 265 9.1
2004-03-26 12:19:03 51°19.77 2°59.44 293.2 3 270 9.2
2004-03-26 12:20:02 51°19.767 2°59.376 298.4 2.2 261 9.1
2004-03-26 12:21:01 51°19.762 2°59.327 301.9 1.8 259 9.2
2004-03-26 12:22:03 51°19.755 2°59.282 305.9 1.8 264 9.2
2004-03-26 12:23:02 51°19.772 2°59.211 322.6 2.5 292 9.2
2004-03-26 12:24:02 51°19.781 2°59.156 325.2 1.9 279 9.3
2004-03-26 12:25:01 51°19.783 2°59.11 325.3 1.6 270 9.5
2004-03-26 12:26:01 51°19.781 2°59.07 327.3 1.4 263 9.5
2004-03-26 12:27:01 51°19.776 2°59.035 329.2 1.3 257 9.5
2004-03-26 12:28:02 51°19.77 2°59.003 328.5 1.2 249 9.5
2004-03-26 12:29:03 51°19.761 2°58.972 328.5 1.3 244 9.4
2004-03-26 12:30:01 51°19.75 2°58.944 324.7 1.3 236 9.5
2004-03-26 12:31:03 51°19.737 2°58.914 318.7 1.3 233 9.6
2004-03-26 12:32:02 51°19.723 2°58.885 312.7 1.3 234 9.5
2004-03-26 12:33:01 51°19.71 2°58.856 308.6 1.3 234 9.6
2004-03-26 12:34:01 51°19.695 2°58.826 306.2 1.5 232 9.5
2004-03-26 12:35:01 51°19.681 2°58.796 304.5 1.3 232 9.6
2004-03-26 12:36:01 51°19.665 2°58.767 300.3 1.5 230 9.6
2004-03-26 12:37:03 51°19.649 2°58.737 297.1 1.5 226 9.6
2004-03-26 12:38:03 51°19.632 2°58.708 293.8 1.5 229 9.5
2004-03-26 12:39:01 51°19.617 2°58.681 292.4 1.4 230 9.5
2004-03-26 12:40:03 51°19.601 2°58.651 292.6 1.3 231 9.4
2004-03-26 12:41:01 51°19.585 2°58.623 292.3 1.4 228 9.5
2004-03-26 12:42:01 51°19.57 2°58.594 295 1.3 231 9.4
2004-03-26 12:43:01 51°19.555 2°58.565 300.4 1.4 233 9.6
2004-03-26 12:44:01 51°19.566 2°58.503 329.5 3.4 308 9.7
2004-03-26 12:45:03 51°19.643 2°58.449 4.3 5.7 354 9.8
2004-03-26 12:46:02 51°19.741 2°58.481 20.9 6.4 12 10
2004-03-26 12:47:01 51°19.836 2°58.555 38.2 6.5 32 10.2
2004-03-26 12:48:02 51°19.926 2°58.657 43.3 6.3 39 10.5
2004-03-26 12:49:03 51°19.98 2°58.74 53.7 3.5 50 10.4
2004-03-26 12:50:01 51°19.995 2°58.8 70.6 2.1 79 10.4
2004-03-26 12:51:01 51°20.014 2°58.896 62.8 6.3 59 10.4
2004-03-26 12:52:01 51°20.151 2°59.047 38.4 12.3 34 10.3
2004-03-26 12:53:02 51°20.313 2°59.27 49.7 12.9 44 10.6
2004-03-26 12:54:02 51°20.465 2°59.514 50 13 46 10.8
2004-03-26 12:55:02 51°20.623 2°59.749 44 13.1 38 10.9
2004-03-26 12:56:01 51°20.793 2°59.954 42.4 13.1 37 11.1
2004-03-26 12:57:02 51°20.967 3°0.169 43 13.1 37 11.1
2004-03-26 12:58:04 51°21.145 3°0.387 43 12.9 38 11.2
2004-03-26 12:59:02 51°21.31 3°0.594 43.5 13.2 39 11.4
2004-03-26 13:00:02 51°21.482 3°0.812 42.2 13.2 38 11.5
2004-03-26 13:01:02 51°21.654 3°1.025 43 13.2 37 11.5
2004-03-26 13:02:02 51°21.823 3°1.237 43.3 13 37 11.5
2004-03-26 13:03:01 51°21.989 3°1.449 44.7 13 41 11.6
2004-03-26 13:04:02 51°22.148 3°1.692 48.8 13 44 11.9
2004-03-26 13:05:02 51°22.306 3°1.929 48 13 44 11.7
2004-03-26 13:06:02 51°22.462 3°2.168 49.1 12.8 43 9.6
2004-03-26 13:07:02 51°22.618 3°2.408 48.4 13 44 11.3
2004-03-26 13:08:02 51°22.775 3°2.647 48 13.1 44 11.1
2004-03-26 13:09:02 51°22.93 3°2.896 48.3 13.3 46 12.3
2004-03-26 13:10:01 51°23.083 3°3.146 47.9 13.4 45 12.1
2004-03-26 13:11:02 51°23.242 3°3.405 48.7 13.6 46 11.4
2004-03-26 13:12:02 51°23.401 3°3.663 48.3 13.6 45 12.8
2004-03-26 13:13:02 51°23.559 3°3.921 48.3 13.5 45 13
2004-03-26 13:14:02 51°23.716 3°4.179 47.8 13.5 44 12.9
2004-03-26 13:15:02 51°23.874 3°4.437 48.6 13.5 46 13.8
2004-03-26 13:16:02 51°24.03 3°4.692 47.7 13.4 46 15.9
2004-03-26 13:17:02 51°24.185 3°4.95 48.7 13.4 46 19.1
2004-03-26 13:18:02 51°24.338 3°5.206 48 13.4 46 16.4
2004-03-26 13:19:01 51°24.488 3°5.457 47.9 13.2 46 12.9
2004-03-26 13:20:04 51°24.648 3°5.725 48.7 13.3 46 12.8
2004-03-26 13:21:02 51°24.795 3°5.973 48.4 13.2 47 12.3
2004-03-26 13:22:02 51°24.946 3°6.226 48.2 13.1 47 11.7
2004-03-26 13:23:02 51°25.095 3°6.479 48.4 13 47 10.5
2004-03-26 13:24:02 51°25.242 3°6.732 48.9 13 47 10.2
2004-03-26 13:25:02 51°25.404 3°6.954 42 12.9 40 10.2
2004-03-26 13:26:02 51°25.568 3°7.173 42.4 12.9 40 10.2
2004-03-26 13:27:02 51°25.733 3°7.392 41.3 12.9 39 10
2004-03-26 13:28:01 51°25.893 3°7.607 42.4 12.7 40 10
2004-03-26 13:29:02 51°26.057 3°7.829 42.3 12.6 41 9.8
2004-03-26 13:30:01 51°26.213 3°8.046 43.4 12.7 42 10.2
2004-03-26 13:31:02 51°26.368 3°8.259 41.5 9.8 41 10.3
2004-03-26 13:32:02 51°26.449 3°8.364 27.8 3.2 36 11.4
2004-03-26 13:33:02 51°26.446 3°8.386 60.2 1.3 150 11.3
2004-03-26 13:34:02 51°26.425 3°8.403 87.6 1.8 157 11.2
2004-03-26 13:35:03 51°26.397 3°8.466 95.8 3.9 114 11.1
2004-03-26 13:36:02 51°26.367 3°8.562 98.5 4 121 11.1
2004-03-26 13:37:01 51°26.338 3°8.638 96.9 3.2 123 11.1
2004-03-26 13:38:02 51°26.308 3°8.705 95.8 2.8 124 10.7
2004-03-26 13:39:02 51°26.28 3°8.768 94.5 2.8 125 10.7
2004-03-26 13:40:02 51°26.253 3°8.829 90.7 2.7 124 10.7
2004-03-26 13:41:02 51°26.227 3°8.889 89.4 2.8 126 10.4
2004-03-26 13:42:02 51°26.197 3°8.95 103.9 3.2 134 10.1
2004-03-26 13:43:01 51°26.154 3°9 136.7 3.5 155 10
2004-03-26 13:44:02 51°26.096 3°9.021 182.9 3.7 179 9.9
2004-03-26 13:45:02 51°26.041 3°8.997 233 3.2 206 9.9
2004-03-26 13:46:01 51°26.005 3°8.947 269.3 2.9 230 9.8
2004-03-26 13:47:02 51°25.989 3°8.875 297.6 2.9 264 9.7
2004-03-26 13:48:01 51°25.995 3°8.802 313.7 2.8 284 9.8
2004-03-26 13:49:02 51°26.013 3°8.733 324.9 2.6 304 10.1
2004-03-26 13:50:02 51°26.041 3°8.685 337.4 2.5 320 10.4
2004-03-26 13:51:02 51°26.074 3°8.643 335.5 2.5 318 10.2
2004-03-26 13:52:02 51°26.103 3°8.589 329.5 2.7 310 10.5
2004-03-26 13:53:02 51°26.136 3°8.543 340.8 2.6 325 10.5
2004-03-26 13:54:02 51°26.173 3°8.512 345.3 2.5 333 10.6
2004-03-26 13:55:02 51°26.21 3°8.48 343.5 2.6 333 10.8
2004-03-26 13:56:04 51°26.253 3°8.466 1.7 2.5 359 10.9
2004-03-26 13:57:02 51°26.293 3°8.469 3.1 2.5 4 11.2
2004-03-26 13:58:02 51°26.335 3°8.471 359.3 2.6 359 11.4
2004-03-26 13:59:01 51°26.377 3°8.464 354.2 2.6 353 11.7
2004-03-26 14:00:03 51°26.423 3°8.466 7.2 2.7 13 11.7
2004-03-26 14:01:02 51°26.465 3°8.499 22.3 2.8 33 11.9
2004-03-26 14:02:02 51°26.507 3°8.532 13.8 2.7 24 12.1
2004-03-26 14:03:02 51°26.55 3°8.564 17.7 2.9 28 12.3
2004-03-26 14:04:02 51°26.594 3°8.598 13.8 2.8 23 12.3
2004-03-26 14:05:02 51°26.639 3°8.619 4.6 2.8 10 12.3
2004-03-26 14:06:02 51°26.684 3°8.623 355.5 2.7 358 12.5
2004-03-26 14:07:02 51°26.728 3°8.611 345.1 2.7 344 12.7
2004-03-26 14:08:02 51°26.764 3°8.604 358.8 1.7 8 12.9
2004-03-26 14:09:02 51°26.783 3°8.619 12.5 1.1 46 13
2004-03-26 14:10:02 51°26.79 3°8.641 19.7 0.9 71 13
2004-03-26 14:11:02 51°26.809 3°8.67 16.6 2.4 30 13
2004-03-26 14:12:02 51°26.849 3°8.721 35.2 3.6 50 12.9
2004-03-26 14:13:02 51°26.872 3°8.818 67 4.2 83 12.7
2004-03-26 14:14:02 51°26.865 3°8.937 94.3 4.8 105 12.4
2004-03-26 14:15:04 51°26.824 3°9.054 122.9 4.9 128 12.2
2004-03-26 14:16:02 51°26.769 3°9.13 147.8 4.4 147 12
2004-03-26 14:17:02 51°26.706 3°9.18 167 4.2 159 12
2004-03-26 14:18:04 51°26.64 3°9.204 185.6 4 170 12
2004-03-26 14:19:03 51°26.578 3°9.206 203.5 3.7 182 11.8
2004-03-26 14:20:02 51°26.524 3°9.187 223.6 3.2 201 11.8
2004-03-26 14:21:02 51°26.477 3°9.154 239.5 2.9 210 11.5
2004-03-26 14:22:04 51°26.439 3°9.113 253 2.6 217 11.2
2004-03-26 14:23:02 51°26.413 3°9.069 265.7 2.2 230 11.6
2004-03-26 14:24:02 51°26.393 3°9.024 270 2.1 232 11.5
2004-03-26 14:25:02 51°26.377 3°8.978 277.9 1.8 250 11.7
2004-03-26 14:26:04 51°26.37 3°8.93 285.9 2.2 262 11.6
2004-03-26 14:27:02 51°26.366 3°8.855 282.3 3.3 265 11.4
2004-03-26 14:28:02 51°26.362 3°8.763 283.4 3.5 267 11.9
2004-03-26 14:29:04 51°26.362 3°8.666 283.5 3.5 269 11.9
2004-03-26 14:30:02 51°26.365 3°8.576 285.5 3.5 277 12.2
2004-03-26 14:31:02 51°26.37 3°8.483 283.7 3.5 274 12.1
2004-03-26 14:32:02 51°26.369 3°8.388 279.7 3.6 268 12.2
2004-03-26 14:33:02 51°26.365 3°8.296 281.2 3.1 266 12.1
2004-03-26 14:34:04 51°26.367 3°8.218 288.7 2.8 275 12.4
2004-03-26 14:35:02 51°26.375 3°8.15 294.7 2.7 280 12
2004-03-26 14:36:02 51°26.385 3°8.078 297.6 2.7 284 12.1
2004-03-26 14:37:02 51°26.397 3°8.012 296.5 2.6 285 12.2
2004-03-26 14:38:02 51°26.409 3°7.941 296.1 2.7 286 12
2004-03-26 14:39:02 51°26.421 3°7.871 296.3 2.7 287 12
2004-03-26 14:40:04 51°26.431 3°7.822 297.6 1.5 279 12
2004-03-26 14:41:02 51°26.435 3°7.794 298.5 1.1 284 12.1
2004-03-26 14:42:02 51°26.429 3°7.679 259.2 7.7 250 11.8
2004-03-26 14:43:02 51°26.337 3°7.427 244.3 12.6 237 11.4
2004-03-26 14:44:02 51°26.22 3°7.135 240.6 13.2 235 12.3
2004-03-26 14:45:02 51°26.089 3°6.852 236 13.3 229 12.7
2004-03-26 14:46:02 51°25.929 3°6.606 229.1 13.4 222 11.9
2004-03-26 14:47:04 51°25.755 3°6.363 227.1 13.3 221 12
2004-03-26 14:48:04 51°25.58 3°6.138 225 13.2 217 12.4
2004-03-26 14:49:02 51°25.408 3°5.93 224 13.4 216 12.8
2004-03-26 14:50:02 51°25.227 3°5.72 220.9 13.5 214 13.5
2004-03-26 14:51:02 51°25.042 3°5.519 222 13.4 215 14.2
2004-03-26 14:52:02 51°24.861 3°5.32 223.2 13.2 216 14.9
2004-03-26 14:53:02 51°24.679 3°5.122 221.9 13.4 214 14.9
2004-03-26 14:54:02 51°24.496 3°4.928 221.1 13.2 213 16.3
2004-03-26 14:55:04 51°24.306 3°4.727 222.4 13.3 214 20.6
2004-03-26 14:56:02 51°24.128 3°4.538 222.3 13.2 213 20.8
2004-03-26 14:57:04 51°23.942 3°4.336 222.3 13 214 15.8
2004-03-26 14:58:02 51°23.769 3°4.154 223.2 12.8 215 14.9
2004-03-26 14:59:02 51°23.593 3°3.966 223 12.6 215 14.7
2004-03-26 15:00:02 51°23.417 3°3.779 221.9 12.6 214 14.8
2004-03-26 15:01:02 51°23.25 3°3.577 226.1 12.5 216 14.7
2004-03-26 15:02:04 51°23.075 3°3.372 223.9 12.3 215 13.4
2004-03-26 15:03:02 51°22.917 3°3.171 226.6 12.5 218 12
2004-03-26 15:04:02 51°22.758 3°2.955 227.6 12.6 221 13.7
2004-03-26 15:05:02 51°22.6 3°2.739 228.8 12.5 222 13.9
2004-03-26 15:06:04 51°22.435 3°2.521 226 12.3 218 13.7
2004-03-26 15:07:02 51°22.28 3°2.316 227 12.5 220 13.7
2004-03-26 15:08:02 51°22.128 3°2.091 229.3 12.4 224 13.7
2004-03-26 15:09:02 51°21.977 3°1.86 230.6 12.5 224 13.9
2004-03-26 15:10:02 51°21.829 3°1.626 229.4 12.5 225 13.8
2004-03-26 15:11:02 51°21.68 3°1.393 230.9 12.5 224 13.7
2004-03-26 15:12:02 51°21.53 3°1.16 230.2 12.7 224 13.6
2004-03-26 15:13:04 51°21.375 3°0.917 231.2 12.7 225 13.6
2004-03-26 15:14:04 51°21.226 3°0.684 230 12.4 225 13.5
2004-03-26 15:15:02 51°21.083 3°0.458 230.6 12.6 226 13.4
2004-03-26 15:16:02 51°20.974 3°0.282 236.4 6.6 231 13.5
2004-03-26 15:17:02 51°20.936 3°0.232 214.6 1.8 182 13.6
2004-03-26 15:18:04 51°20.917 3°0.243 222 0.9 154 13.6
2004-03-26 15:19:02 51°20.894 3°0.229 234.4 2 220 13.5
2004-03-26 15:20:02 51°20.868 3°0.18 246 2.4 242 13.5
2004-03-26 15:21:04 51°20.846 3°0.125 243.3 2.3 236 13.4
2004-03-26 15:22:02 51°20.824 3°0.075 246.5 2.4 236 13.5
2004-03-26 15:23:02 51°20.806 3°0.019 249.2 2.4 242 13.4
2004-03-26 15:24:04 51°20.792 2°59.957 253.8 2.4 253 13.4
2004-03-26 15:25:02 51°20.783 2°59.897 257.6 2.4 262 13.6
2004-03-26 15:26:04 51°20.776 2°59.834 257.7 2.4 263 13.6
2004-03-26 15:27:04 51°20.767 2°59.774 255.6 2.4 259 13.8
2004-03-26 15:28:04 51°20.756 2°59.714 253.5 2.3 249 13.6
2004-03-26 15:29:02 51°20.744 2°59.656 251.3 2.4 251 13.6
2004-03-26 15:30:04 51°20.728 2°59.592 248.4 2.6 244 13.6
2004-03-26 15:31:02 51°20.713 2°59.531 251.7 2.6 252 13.7
2004-03-26 15:32:04 51°20.702 2°59.463 255.9 2.5 257 13.7
2004-03-26 15:33:02 51°20.694 2°59.4 258.3 2.5 260 13.6
2004-03-26 15:34:04 51°20.689 2°59.331 262.4 2.5 267 13.7
2004-03-26 15:35:02 51°20.689 2°59.265 265.7 2.6 271 13.7
2004-03-26 15:36:04 51°20.689 2°59.193 263.1 2.6 267 13.8
2004-03-26 15:37:04 51°20.685 2°59.124 258.4 2.6 259 13.8
2004-03-26 15:38:04 51°20.675 2°59.058 254 2.5 251 13.8
2004-03-26 15:39:04 51°20.66 2°58.995 249 2.5 244 13.8
2004-03-26 15:40:04 51°20.641 2°58.935 244.5 2.5 241 13.7
2004-03-26 15:41:02 51°20.619 2°58.881 241 2.5 237 13.7
2004-03-26 15:42:02 51°20.596 2°58.825 244.6 2.5 241 13.9
2004-03-26 15:43:02 51°20.581 2°58.763 254.7 2.5 255 13.8
2004-03-26 15:44:02 51°20.578 2°58.696 264.2 2.6 273 13.8
2004-03-26 15:45:02 51°20.585 2°58.625 273.9 2.8 286 13.7
2004-03-26 15:46:02 51°20.602 2°58.554 282.2 2.9 294 13.9
2004-03-26 15:47:04 51°20.626 2°58.495 291.2 2.1 311 14
2004-03-26 15:48:02 51°20.647 2°58.468 295.1 1.5 329 14.1
2004-03-26 15:49:02 51°20.668 2°58.445 294.4 2.6 309 14.1
2004-03-26 15:50:02 51°20.631 2°58.312 226.6 8.9 222 14
2004-03-26 15:51:02 51°20.492 2°58.102 228.4 12.3 224 13.9
2004-03-26 15:52:04 51°20.337 2°57.872 225.5 12.5 221 13.8
2004-03-26 15:53:03 51°20.188 2°57.651 227.1 12.4 222 13.8
2004-03-26 15:54:02 51°20.034 2°57.439 225.6 12.3 219 13.7
2004-03-26 15:55:03 51°19.875 2°57.218 224.9 12.5 220 13.6
2004-03-26 15:56:04 51°19.714 2°56.999 224.2 12.6 221 13.3
2004-03-26 15:57:02 51°19.562 2°56.789 226 12.3 220 13.7
2004-03-26 15:58:02 51°19.405 2°56.572 224.6 12.4 220 13.2
2004-03-26 15:59:03 51°19.247 2°56.35 225.4 12.6 221 13.1
2004-03-26 16:00:03 51°19.09 2°56.133 225.2 12.6 222 13
2004-03-26 16:01:02 51°18.933 2°55.92 224.4 12.6 220 13.1
2004-03-26 16:02:02 51°18.774 2°55.703 225.5 12.4 221 12.7
2004-03-26 16:03:04 51°18.603 2°55.49 221 12.6 215 12.6
2004-03-26 16:04:03 51°18.436 2°55.294 221.8 12.6 216 12.2
2004-03-26 16:05:03 51°18.268 2°55.091 221.7 12.7 218 11.9
2004-03-26 16:06:02 51°18.1 2°54.889 220.4 12.9 216 11.5
2004-03-26 16:07:03 51°17.926 2°54.679 221.6 12.9 216 11.4
2004-03-26 16:08:02 51°17.756 2°54.481 219.1 13.1 214 11.2
2004-03-26 16:09:02 51°17.579 2°54.291 217.9 12.8 213 10.9
2004-03-26 16:10:03 51°17.397 2°54.101 218.4 12.9 212 10.4
2004-03-26 16:11:02 51°17.223 2°53.924 218 12.3 212 10.4
2004-03-26 16:12:04 51°17.036 2°53.763 211.2 12.4 205 10.3
2004-03-26 16:13:04 51°16.829 2°53.671 198.3 13.1 193 13.5
2004-03-26 16:14:02 51°16.619 2°53.666 181.3 13.2 174 14.3
2004-03-26 16:15:04 51°16.394 2°53.723 179.9 13 172 14.3
2004-03-26 16:16:02 51°16.18 2°53.771 179.8 13.5 172 14.1
2004-03-26 16:17:02 51°15.959 2°53.841 176.8 13.5 169 13.7
2004-03-26 16:18:02 51°15.74 2°53.914 176 13.5 168 13.3
2004-03-26 16:19:02 51°15.523 2°53.985 174.6 13.5 166 12.5
2004-03-26 16:20:02 51°15.305 2°54.067 173.4 13.6 167 11.8
2004-03-26 16:21:03 51°15.084 2°54.17 166.8 13.5 159 11.2
2004-03-26 16:22:02 51°14.887 2°54.345 158.6 13.8 151 11.7
2004-03-26 16:23:02 51°14.685 2°54.517 160.6 13.6 152 12.3
2004-03-26 16:24:03 51°14.503 2°54.757 144.4 14.2 135 12.6
2004-03-26 16:25:03 51°14.36 2°55.034 136.2 12.8 131 13
2004-03-26 16:26:02 51°14.251 2°55.261 134.9 9.8 132 13.2
2004-03-26 16:27:03 51°14.143 2°55.407 150.3 7.7 145 13.2
2004-03-26 16:28:03 51°14.037 2°55.498 157.4 7.1 153 13.3
2004-03-26 16:29:03 51°13.929 2°55.575 159.7 7 156 12.1